RJOS(METAR)
06/25 08:00
METAR RJOS 242300Z 25003KT 190V350 9999 FEW025 22/17 Q1016 RMK
1CU025 A3003=
戻る
トップページへ戻る
IMOC Co,.Ltd.